sensor_id;sensor_type;location;lat;lon;timestamp;temperature;humidity
6379;DHT22;3222;48.858;10.128;2023-02-28T00:01:33;-1.10;99.90
6379;DHT22;3222;48.858;10.128;2023-02-28T00:03:59;-1.10;99.90
6379;DHT22;3222;48.858;10.128;2023-02-28T00:06:25;-1.10;99.90
6379;DHT22;3222;48.858;10.128;2023-02-28T00:08:50;-1.10;99.90
6379;DHT22;3222;48.858;10.128;2023-02-28T00:11:16;-1.10;99.90
6379;DHT22;3222;48.858;10.128;2023-02-28T00:13:44;-1.20;99.90
6379;DHT22;3222;48.858;10.128;2023-02-28T00:16:14;-1.10;99.90
6379;DHT22;3222;48.858;10.128;2023-02-28T00:18:41;-1.20;99.90
6379;DHT22;3222;48.858;10.128;2023-02-28T00:21:07;-1.20;99.90
6379;DHT22;3222;48.858;10.128;2023-02-28T00:23:33;-1.10;99.90
6379;DHT22;3222;48.858;10.128;2023-02-28T00:25:59;-1.10;99.90
6379;DHT22;3222;48.858;10.128;2023-02-28T00:28:24;-1.10;99.90
6379;DHT22;3222;48.858;10.128;2023-02-28T00:30:50;-1.20;99.90
6379;DHT22;3222;48.858;10.128;2023-02-28T00:33:16;-1.10;99.90
6379;DHT22;3222;48.858;10.128;2023-02-28T00:35:42;-1.20;99.90
6379;DHT22;3222;48.858;10.128;2023-02-28T00:38:12;-1.20;99.90
6379;DHT22;3222;48.858;10.128;2023-02-28T00:40:38;-1.10;99.90
6379;DHT22;3222;48.858;10.128;2023-02-28T00:43:03;-1.10;99.90
6379;DHT22;3222;48.858;10.128;2023-02-28T00:45:29;-1.10;99.90
6379;DHT22;3222;48.858;10.128;2023-02-28T00:47:56;-1.10;99.90
6379;DHT22;3222;48.858;10.128;2023-02-28T00:50:22;-1.20;99.90
6379;DHT22;3222;48.858;10.128;2023-02-28T00:52:48;-1.30;99.90
6379;DHT22;3222;48.858;10.128;2023-02-28T00:55:14;-1.30;99.90
6379;DHT22;3222;48.858;10.128;2023-02-28T00:57:40;-1.20;99.90
6379;DHT22;3222;48.858;10.128;2023-02-28T01:00:06;-1.20;99.90
6379;DHT22;3222;48.858;10.128;2023-02-28T01:02:33;-1.30;99.90
6379;DHT22;3222;48.858;10.128;2023-02-28T01:04:58;-1.30;99.90
6379;DHT22;3222;48.858;10.128;2023-02-28T01:07:25;-1.40;99.90
6379;DHT22;3222;48.858;10.128;2023-02-28T01:09:51;-1.30;99.90
6379;DHT22;3222;48.858;10.128;2023-02-28T01:12:16;-1.40;99.90
6379;DHT22;3222;48.858;10.128;2023-02-28T01:14:42;-1.30;99.90
6379;DHT22;3222;48.858;10.128;2023-02-28T01:17:08;-1.30;99.90
6379;DHT22;3222;48.858;10.128;2023-02-28T01:19:34;-1.30;99.90
6379;DHT22;3222;48.858;10.128;2023-02-28T01:22:03;-1.40;99.90
6379;DHT22;3222;48.858;10.128;2023-02-28T01:24:29;-1.40;99.90
6379;DHT22;3222;48.858;10.128;2023-02-28T01:26:55;-1.40;99.90
6379;DHT22;3222;48.858;10.128;2023-02-28T01:29:21;-1.40;99.90
6379;DHT22;3222;48.858;10.128;2023-02-28T01:31:46;-1.40;99.90
6379;DHT22;3222;48.858;10.128;2023-02-28T01:34:12;-1.30;99.90
6379;DHT22;3222;48.858;10.128;2023-02-28T01:36:38;-1.40;99.90
6379;DHT22;3222;48.858;10.128;2023-02-28T01:39:04;-1.30;99.90
6379;DHT22;3222;48.858;10.128;2023-02-28T01:41:32;-1.40;99.90
6379;DHT22;3222;48.858;10.128;2023-02-28T01:44:03;-1.40;99.90
6379;DHT22;3222;48.858;10.128;2023-02-28T01:46:34;-1.50;99.90
6379;DHT22;3222;48.858;10.128;2023-02-28T01:51:35;-1.50;99.90
6379;DHT22;3222;48.858;10.128;2023-02-28T01:54:08;-1.50;99.90
6379;DHT22;3222;48.858;10.128;2023-02-28T01:56:46;-1.40;99.90
6379;DHT22;3222;48.858;10.128;2023-02-28T01:59:20;-1.50;99.90
6379;DHT22;3222;48.858;10.128;2023-02-28T02:01:47;-1.50;99.90
6379;DHT22;3222;48.858;10.128;2023-02-28T02:04:13;-1.50;99.90
6379;DHT22;3222;48.858;10.128;2023-02-28T02:06:44;-1.50;99.90
6379;DHT22;3222;48.858;10.128;2023-02-28T02:09:11;-1.50;99.90
6379;DHT22;3222;48.858;10.128;2023-02-28T02:11:39;-1.50;99.90
6379;DHT22;3222;48.858;10.128;2023-02-28T02:14:28;-1.60;99.90
6379;DHT22;3222;48.858;10.128;2023-02-28T02:37:00;-1.70;99.90
6379;DHT22;3222;48.858;10.128;2023-02-28T02:39:35;-1.70;99.90
6379;DHT22;3222;48.858;10.128;2023-02-28T02:42:11;-1.70;99.90
6379;DHT22;3222;48.858;10.128;2023-02-28T02:44:52;-1.70;99.90
6379;DHT22;3222;48.858;10.128;2023-02-28T02:47:24;-1.70;99.90
6379;DHT22;3222;48.858;10.128;2023-02-28T02:49:56;-1.70;99.90
6379;DHT22;3222;48.858;10.128;2023-02-28T02:52:28;-1.50;99.90
6379;DHT22;3222;48.858;10.128;2023-02-28T02:54:56;-1.60;99.90
6379;DHT22;3222;48.858;10.128;2023-02-28T02:57:30;-1.60;99.90
6379;DHT22;3222;48.858;10.128;2023-02-28T02:59:58;-1.70;99.90
6379;DHT22;3222;48.858;10.128;2023-02-28T03:02:26;-1.70;99.90
6379;DHT22;3222;48.858;10.128;2023-02-28T03:05:02;-1.60;99.90
6379;DHT22;3222;48.858;10.128;2023-02-28T03:07:29;-1.70;99.90
6379;DHT22;3222;48.858;10.128;2023-02-28T03:09:56;-1.60;99.90
6379;DHT22;3222;48.858;10.128;2023-02-28T03:12:50;-1.70;99.90
6379;DHT22;3222;48.858;10.128;2023-02-28T03:15:30;-1.70;99.90
6379;DHT22;3222;48.858;10.128;2023-02-28T03:18:12;-1.70;99.90
6379;DHT22;3222;48.858;10.128;2023-02-28T03:23:52;-1.60;99.90
6379;DHT22;3222;48.858;10.128;2023-02-28T03:26:23;-1.70;99.90
6379;DHT22;3222;48.858;10.128;2023-02-28T03:29:11;-1.70;99.90
6379;DHT22;3222;48.858;10.128;2023-02-28T03:31:41;-1.60;99.90
6379;DHT22;3222;48.858;10.128;2023-02-28T03:34:22;-1.60;99.90
6379;DHT22;3222;48.858;10.128;2023-02-28T03:36:52;-1.80;99.90
6379;DHT22;3222;48.858;10.128;2023-02-28T03:39:42;-1.80;99.90
6379;DHT22;3222;48.858;10.128;2023-02-28T03:42:14;-1.80;99.90
6379;DHT22;3222;48.858;10.128;2023-02-28T03:44:51;-1.80;99.90
6379;DHT22;3222;48.858;10.128;2023-02-28T03:47:38;-1.70;99.90
6379;DHT22;3222;48.858;10.128;2023-02-28T03:50:08;-1.60;99.90
6379;DHT22;3222;48.858;10.128;2023-02-28T03:52:40;-1.40;99.90
6379;DHT22;3222;48.858;10.128;2023-02-28T03:55:11;-1.50;99.90
6379;DHT22;3222;48.858;10.128;2023-02-28T03:58:05;-1.60;99.90
6379;DHT22;3222;48.858;10.128;2023-02-28T04:00:38;-1.60;99.90
6379;DHT22;3222;48.858;10.128;2023-02-28T04:03:05;-1.70;99.90
6379;DHT22;3222;48.858;10.128;2023-02-28T04:05:32;-1.60;99.90
6379;DHT22;3222;48.858;10.128;2023-02-28T04:08:06;-1.50;99.90
6379;DHT22;3222;48.858;10.128;2023-02-28T04:10:32;-1.60;99.90
6379;DHT22;3222;48.858;10.128;2023-02-28T04:12:58;-1.40;99.90
6379;DHT22;3222;48.858;10.128;2023-02-28T04:15:23;-1.60;99.90
6379;DHT22;3222;48.858;10.128;2023-02-28T04:17:50;-1.60;99.90
6379;DHT22;3222;48.858;10.128;2023-02-28T04:20:16;-1.70;99.90
6379;DHT22;3222;48.858;10.128;2023-02-28T04:22:42;-1.70;99.90
6379;DHT22;3222;48.858;10.128;2023-02-28T04:25:08;-1.50;99.90
6379;DHT22;3222;48.858;10.128;2023-02-28T04:27:33;-1.60;99.90
6379;DHT22;3222;48.858;10.128;2023-02-28T04:29:59;-1.50;99.90
6379;DHT22;3222;48.858;10.128;2023-02-28T04:32:25;-1.50;99.90
6379;DHT22;3222;48.858;10.128;2023-02-28T04:34:50;-1.50;99.90
6379;DHT22;3222;48.858;10.128;2023-02-28T04:37:16;-1.60;99.90
6379;DHT22;3222;48.858;10.128;2023-02-28T04:39:42;-1.60;99.90
6379;DHT22;3222;48.858;10.128;2023-02-28T04:42:08;-1.50;99.90
6379;DHT22;3222;48.858;10.128;2023-02-28T04:44:33;-1.50;99.90
6379;DHT22;3222;48.858;10.128;2023-02-28T04:46:59;-1.60;99.90
6379;DHT22;3222;48.858;10.128;2023-02-28T04:49:25;-1.50;99.90
6379;DHT22;3222;48.858;10.128;2023-02-28T04:51:51;-1.60;99.90
6379;DHT22;3222;48.858;10.128;2023-02-28T04:54:18;-1.60;99.90
6379;DHT22;3222;48.858;10.128;2023-02-28T04:56:44;-1.50;99.90
6379;DHT22;3222;48.858;10.128;2023-02-28T04:59:09;-1.60;99.90
6379;DHT22;3222;48.858;10.128;2023-02-28T05:01:35;-1.70;99.90
6379;DHT22;3222;48.858;10.128;2023-02-28T05:04:03;-1.60;99.90
6379;DHT22;3222;48.858;10.128;2023-02-28T05:06:32;-1.70;99.90
6379;DHT22;3222;48.858;10.128;2023-02-28T05:08:58;-1.80;99.90
6379;DHT22;3222;48.858;10.128;2023-02-28T05:11:31;-1.70;99.90
6379;DHT22;3222;48.858;10.128;2023-02-28T05:14:12;-1.60;99.90
6379;DHT22;3222;48.858;10.128;2023-02-28T05:16:38;-1.60;99.90
6379;DHT22;3222;48.858;10.128;2023-02-28T05:19:03;-1.50;99.90
6379;DHT22;3222;48.858;10.128;2023-02-28T05:21:31;-1.60;99.90
6379;DHT22;3222;48.858;10.128;2023-02-28T05:23:59;-1.60;99.90
6379;DHT22;3222;48.858;10.128;2023-02-28T05:26:26;-1.50;99.90
6379;DHT22;3222;48.858;10.128;2023-02-28T05:28:53;-1.50;99.90
6379;DHT22;3222;48.858;10.128;2023-02-28T05:31:18;-1.50;99.90
6379;DHT22;3222;48.858;10.128;2023-02-28T05:33:44;-1.50;99.90
6379;DHT22;3222;48.858;10.128;2023-02-28T05:36:10;-1.60;99.90
6379;DHT22;3222;48.858;10.128;2023-02-28T05:38:36;-1.60;99.90
6379;DHT22;3222;48.858;10.128;2023-02-28T05:41:06;-1.50;99.90
6379;DHT22;3222;48.858;10.128;2023-02-28T05:43:32;-1.50;99.90
6379;DHT22;3222;48.858;10.128;2023-02-28T05:45:58;-1.60;99.90
6379;DHT22;3222;48.858;10.128;2023-02-28T05:48:23;-1.70;99.90
6379;DHT22;3222;48.858;10.128;2023-02-28T05:50:49;-1.70;99.90
6379;DHT22;3222;48.858;10.128;2023-02-28T05:53:15;-1.70;99.90
6379;DHT22;3222;48.858;10.128;2023-02-28T05:55:41;-1.60;99.90
6379;DHT22;3222;48.858;10.128;2023-02-28T05:58:06;-1.70;99.90
6379;DHT22;3222;48.858;10.128;2023-02-28T06:00:33;-1.70;99.90
6379;DHT22;3222;48.858;10.128;2023-02-28T06:02:59;-1.70;99.90
6379;DHT22;3222;48.858;10.128;2023-02-28T06:05:27;-1.80;99.90
6379;DHT22;3222;48.858;10.128;2023-02-28T06:07:53;-1.80;99.90
6379;DHT22;3222;48.858;10.128;2023-02-28T06:10:19;-1.60;99.90
6379;DHT22;3222;48.858;10.128;2023-02-28T06:12:45;-1.60;99.90
6379;DHT22;3222;48.858;10.128;2023-02-28T06:15:13;-1.70;99.90
6379;DHT22;3222;48.858;10.128;2023-02-28T06:17:40;-1.60;99.90
6379;DHT22;3222;48.858;10.128;2023-02-28T06:20:07;-1.60;99.90
6379;DHT22;3222;48.858;10.128;2023-02-28T06:22:37;-1.60;99.90
6379;DHT22;3222;48.858;10.128;2023-02-28T06:25:04;-1.70;99.90
6379;DHT22;3222;48.858;10.128;2023-02-28T06:27:32;-1.70;99.90
6379;DHT22;3222;48.858;10.128;2023-02-28T06:29:57;-1.70;99.90
6379;DHT22;3222;48.858;10.128;2023-02-28T06:32:23;-1.60;99.90
6379;DHT22;3222;48.858;10.128;2023-02-28T06:34:49;-1.60;99.90
6379;DHT22;3222;48.858;10.128;2023-02-28T06:37:16;-1.50;99.90
6379;DHT22;3222;48.858;10.128;2023-02-28T06:39:42;-1.60;99.90
6379;DHT22;3222;48.858;10.128;2023-02-28T06:42:08;-1.70;99.90
6379;DHT22;3222;48.858;10.128;2023-02-28T06:44:34;-1.70;99.90
6379;DHT22;3222;48.858;10.128;2023-02-28T06:47:01;-1.80;99.90
6379;DHT22;3222;48.858;10.128;2023-02-28T06:49:35;-1.80;99.90
6379;DHT22;3222;48.858;10.128;2023-02-28T06:52:01;-1.60;99.90
6379;DHT22;3222;48.858;10.128;2023-02-28T06:54:26;-1.80;99.90
6379;DHT22;3222;48.858;10.128;2023-02-28T06:56:52;-1.80;99.90
6379;DHT22;3222;48.858;10.128;2023-02-28T06:59:19;-1.70;99.90
6379;DHT22;3222;48.858;10.128;2023-02-28T07:01:45;-1.70;99.90
6379;DHT22;3222;48.858;10.128;2023-02-28T07:04:11;-1.90;99.90
6379;DHT22;3222;48.858;10.128;2023-02-28T07:06:37;-1.80;99.90
6379;DHT22;3222;48.858;10.128;2023-02-28T07:09:03;-1.80;99.90
6379;DHT22;3222;48.858;10.128;2023-02-28T07:11:29;-1.80;99.90
6379;DHT22;3222;48.858;10.128;2023-02-28T07:13:55;-1.80;99.90
6379;DHT22;3222;48.858;10.128;2023-02-28T07:16:21;-1.60;99.90
6379;DHT22;3222;48.858;10.128;2023-02-28T07:18:47;-1.70;99.90
6379;DHT22;3222;48.858;10.128;2023-02-28T07:21:13;-1.70;99.90
6379;DHT22;3222;48.858;10.128;2023-02-28T07:23:39;-1.80;99.90
6379;DHT22;3222;48.858;10.128;2023-02-28T07:26:07;-1.70;99.90
6379;DHT22;3222;48.858;10.128;2023-02-28T07:28:32;-1.70;99.90
6379;DHT22;3222;48.858;10.128;2023-02-28T07:31:06;-1.70;99.90
6379;DHT22;3222;48.858;10.128;2023-02-28T07:33:32;-1.60;99.90
6379;DHT22;3222;48.858;10.128;2023-02-28T07:36:17;-1.60;99.90
6379;DHT22;3222;48.858;10.128;2023-02-28T07:38:46;-1.60;99.90
6379;DHT22;3222;48.858;10.128;2023-02-28T07:41:18;-1.60;99.90
6379;DHT22;3222;48.858;10.128;2023-02-28T07:43:43;-1.70;99.90
6379;DHT22;3222;48.858;10.128;2023-02-28T07:46:12;-1.70;99.90
6379;DHT22;3222;48.858;10.128;2023-02-28T07:48:40;-1.60;99.90
6379;DHT22;3222;48.858;10.128;2023-02-28T07:51:06;-1.60;99.90
6379;DHT22;3222;48.858;10.128;2023-02-28T07:53:33;-1.60;99.90
6379;DHT22;3222;48.858;10.128;2023-02-28T07:56:00;-1.70;99.90
6379;DHT22;3222;48.858;10.128;2023-02-28T07:58:26;-1.70;99.90
6379;DHT22;3222;48.858;10.128;2023-02-28T08:00:52;-1.50;99.90
6379;DHT22;3222;48.858;10.128;2023-02-28T08:03:20;-1.60;99.90
6379;DHT22;3222;48.858;10.128;2023-02-28T08:05:46;-1.60;99.90
6379;DHT22;3222;48.858;10.128;2023-02-28T08:08:11;-1.60;99.90
6379;DHT22;3222;48.858;10.128;2023-02-28T08:10:37;-1.60;99.90
6379;DHT22;3222;48.858;10.128;2023-02-28T08:13:03;-1.40;99.90
6379;DHT22;3222;48.858;10.128;2023-02-28T08:15:29;-1.30;99.90
6379;DHT22;3222;48.858;10.128;2023-02-28T08:17:55;-1.40;99.90
6379;DHT22;3222;48.858;10.128;2023-02-28T08:20:25;-1.20;99.90
6379;DHT22;3222;48.858;10.128;2023-02-28T08:22:50;-1.10;99.90
6379;DHT22;3222;48.858;10.128;2023-02-28T08:25:16;-1.30;99.90
6379;DHT22;3222;48.858;10.128;2023-02-28T08:27:42;-1.30;99.90
6379;DHT22;3222;48.858;10.128;2023-02-28T08:30:11;-1.20;99.90
6379;DHT22;3222;48.858;10.128;2023-02-28T08:32:37;-1.20;99.90
6379;DHT22;3222;48.858;10.128;2023-02-28T08:35:03;-1.10;99.90
6379;DHT22;3222;48.858;10.128;2023-02-28T08:37:29;-1.10;99.90
6379;DHT22;3222;48.858;10.128;2023-02-28T08:39:55;-1.20;99.90
6379;DHT22;3222;48.858;10.128;2023-02-28T08:42:20;-1.10;99.90
6379;DHT22;3222;48.858;10.128;2023-02-28T08:44:46;-1.00;99.90
6379;DHT22;3222;48.858;10.128;2023-02-28T08:47:12;-1.00;99.90
6379;DHT22;3222;48.858;10.128;2023-02-28T08:49:38;-0.90;99.90
6379;DHT22;3222;48.858;10.128;2023-02-28T08:52:03;-0.80;99.90
6379;DHT22;3222;48.858;10.128;2023-02-28T08:54:29;-0.70;99.90
6379;DHT22;3222;48.858;10.128;2023-02-28T08:56:57;-0.90;99.90
6379;DHT22;3222;48.858;10.128;2023-02-28T08:59:22;-0.70;99.90
6379;DHT22;3222;48.858;10.128;2023-02-28T09:01:48;-0.80;99.90
6379;DHT22;3222;48.858;10.128;2023-02-28T09:04:14;-0.60;99.90
6379;DHT22;3222;48.858;10.128;2023-02-28T09:06:40;-0.70;99.90
6379;DHT22;3222;48.858;10.128;2023-02-28T09:09:05;-0.70;99.90
6379;DHT22;3222;48.858;10.128;2023-02-28T09:11:33;-0.70;99.90
6379;DHT22;3222;48.858;10.128;2023-02-28T09:14:00;-0.70;99.90
6379;DHT22;3222;48.858;10.128;2023-02-28T09:16:29;-0.60;99.90
6379;DHT22;3222;48.858;10.128;2023-02-28T09:18:54;-0.50;99.90
6379;DHT22;3222;48.858;10.128;2023-02-28T09:21:20;-0.50;99.90
6379;DHT22;3222;48.858;10.128;2023-02-28T09:23:47;-0.40;99.90
6379;DHT22;3222;48.858;10.128;2023-02-28T09:26:19;-0.20;99.90
6379;DHT22;3222;48.858;10.128;2023-02-28T09:28:45;-0.20;99.90
6379;DHT22;3222;48.858;10.128;2023-02-28T09:31:14;0.00;99.90
6379;DHT22;3222;48.858;10.128;2023-02-28T09:33:40;0.00;99.90
6379;DHT22;3222;48.858;10.128;2023-02-28T09:36:07;-0.10;99.90
6379;DHT22;3222;48.858;10.128;2023-02-28T09:38:32;-0.10;99.90
6379;DHT22;3222;48.858;10.128;2023-02-28T09:41:08;-0.10;99.90
6379;DHT22;3222;48.858;10.128;2023-02-28T09:43:38;0.00;99.90
6379;DHT22;3222;48.858;10.128;2023-02-28T09:49:04;0.10;99.90
6379;DHT22;3222;48.858;10.128;2023-02-28T09:54:20;0.20;99.90
6379;DHT22;3222;48.858;10.128;2023-02-28T09:59:49;0.10;99.90
6379;DHT22;3222;48.858;10.128;2023-02-28T10:05:24;0.20;99.90
6379;DHT22;3222;48.858;10.128;2023-02-28T10:08:12;0.40;99.90
6379;DHT22;3222;48.858;10.128;2023-02-28T10:10:42;0.60;99.90
6379;DHT22;3222;48.858;10.128;2023-02-28T10:16:15;0.50;99.90
6379;DHT22;3222;48.858;10.128;2023-02-28T10:19:20;0.40;99.90
6379;DHT22;3222;48.858;10.128;2023-02-28T10:21:49;0.40;99.90
6379;DHT22;3222;48.858;10.128;2023-02-28T10:24:35;0.50;99.90
6379;DHT22;3222;48.858;10.128;2023-02-28T10:27:18;0.60;99.90
6379;DHT22;3222;48.858;10.128;2023-02-28T10:29:56;0.50;99.90
6379;DHT22;3222;48.858;10.128;2023-02-28T10:32:33;0.40;99.90
6379;DHT22;3222;48.858;10.128;2023-02-28T10:35:01;0.30;99.90
6379;DHT22;3222;48.858;10.128;2023-02-28T10:37:31;0.30;99.90
6379;DHT22;3222;48.858;10.128;2023-02-28T10:39:57;0.30;99.90
6379;DHT22;3222;48.858;10.128;2023-02-28T10:42:27;0.40;99.90
6379;DHT22;3222;48.858;10.128;2023-02-28T10:45:16;0.40;99.90
6379;DHT22;3222;48.858;10.128;2023-02-28T11:01:38;0.50;99.90
6379;DHT22;3222;48.858;10.128;2023-02-28T11:06:46;0.60;99.90
6379;DHT22;3222;48.858;10.128;2023-02-28T11:09:30;0.70;99.90
6379;DHT22;3222;48.858;10.128;2023-02-28T11:11:56;0.80;99.90
6379;DHT22;3222;48.858;10.128;2023-02-28T11:14:25;0.90;99.90
6379;DHT22;3222;48.858;10.128;2023-02-28T11:16:52;1.00;99.90
6379;DHT22;3222;48.858;10.128;2023-02-28T11:19:22;1.00;99.90
6379;DHT22;3222;48.858;10.128;2023-02-28T11:21:55;1.10;99.90
6379;DHT22;3222;48.858;10.128;2023-02-28T11:24:37;0.90;99.90
6379;DHT22;3222;48.858;10.128;2023-02-28T11:27:10;0.90;99.90
6379;DHT22;3222;48.858;10.128;2023-02-28T11:29:47;1.20;99.90
6379;DHT22;3222;48.858;10.128;2023-02-28T11:32:27;1.50;99.90
6379;DHT22;3222;48.858;10.128;2023-02-28T11:37:27;1.80;99.90
6379;DHT22;3222;48.858;10.128;2023-02-28T11:39:54;1.80;99.90
6379;DHT22;3222;48.858;10.128;2023-02-28T11:42:26;1.80;99.90
6379;DHT22;3222;48.858;10.128;2023-02-28T11:45:15;1.80;99.90
6379;DHT22;3222;48.858;10.128;2023-02-28T11:48:02;1.80;99.90
6379;DHT22;3222;48.858;10.128;2023-02-28T11:51:00;1.70;99.90
6379;DHT22;3222;48.858;10.128;2023-02-28T11:56:21;1.90;99.90
6379;DHT22;3222;48.858;10.128;2023-02-28T12:02:05;1.90;99.90
6379;DHT22;3222;48.858;10.128;2023-02-28T12:04:40;2.10;99.90
6379;DHT22;3222;48.858;10.128;2023-02-28T12:07:19;2.40;99.90
6379;DHT22;3222;48.858;10.128;2023-02-28T12:12:51;2.30;99.90
6379;DHT22;3222;48.858;10.128;2023-02-28T12:15:36;2.10;99.90
6379;DHT22;3222;48.858;10.128;2023-02-28T12:18:25;2.10;99.90
6379;DHT22;3222;48.858;10.128;2023-02-28T12:26:45;2.50;99.90
6379;DHT22;3222;48.858;10.128;2023-02-28T12:29:49;2.50;99.90
6379;DHT22;3222;48.858;10.128;2023-02-28T12:32:52;2.50;99.90
6379;DHT22;3222;48.858;10.128;2023-02-28T12:35:32;2.60;99.90
6379;DHT22;3222;48.858;10.128;2023-02-28T12:38:21;2.80;99.90
6379;DHT22;3222;48.858;10.128;2023-02-28T12:41:15;2.90;99.90
6379;DHT22;3222;48.858;10.128;2023-02-28T12:43:46;3.00;99.90
6379;DHT22;3222;48.858;10.128;2023-02-28T12:46:19;3.00;99.90
6379;DHT22;3222;48.858;10.128;2023-02-28T12:48:56;3.10;99.90
6379;DHT22;3222;48.858;10.128;2023-02-28T12:51:24;2.90;99.90
6379;DHT22;3222;48.858;10.128;2023-02-28T13:10:20;3.10;99.90
6379;DHT22;3222;48.858;10.128;2023-02-28T13:12:53;3.00;99.90
6379;DHT22;3222;48.858;10.128;2023-02-28T13:15:26;2.90;99.90
6379;DHT22;3222;48.858;10.128;2023-02-28T13:17:56;3.10;99.90
6379;DHT22;3222;48.858;10.128;2023-02-28T13:20:29;3.20;99.90
6379;DHT22;3222;48.858;10.128;2023-02-28T13:22:56;3.20;99.90
6379;DHT22;3222;48.858;10.128;2023-02-28T13:27:50;3.40;99.90
6379;DHT22;3222;48.858;10.128;2023-02-28T13:33:31;3.50;99.90
6379;DHT22;3222;48.858;10.128;2023-02-28T13:38:46;3.70;99.90
6379;DHT22;3222;48.858;10.128;2023-02-28T13:46:26;3.70;99.90
6379;DHT22;3222;48.858;10.128;2023-02-28T13:48:52;3.70;99.90
6379;DHT22;3222;48.858;10.128;2023-02-28T13:51:44;3.80;99.90
6379;DHT22;3222;48.858;10.128;2023-02-28T14:00:01;4.00;99.90
6379;DHT22;3222;48.858;10.128;2023-02-28T14:05:30;4.10;99.90
6379;DHT22;3222;48.858;10.128;2023-02-28T14:07:59;4.10;99.90
6379;DHT22;3222;48.858;10.128;2023-02-28T14:10:31;4.10;99.90
6379;DHT22;3222;48.858;10.128;2023-02-28T14:13:10;4.00;99.90
6379;DHT22;3222;48.858;10.128;2023-02-28T14:18:39;4.20;99.90
6379;DHT22;3222;48.858;10.128;2023-02-28T14:21:21;4.20;99.90
6379;DHT22;3222;48.858;10.128;2023-02-28T14:26:57;4.30;99.90
6379;DHT22;3222;48.858;10.128;2023-02-28T14:37:18;4.20;99.90
6379;DHT22;3222;48.858;10.128;2023-02-28T14:39:45;4.20;99.90
6379;DHT22;3222;48.858;10.128;2023-02-28T14:45:00;4.10;99.90
6379;DHT22;3222;48.858;10.128;2023-02-28T14:47:30;3.90;99.90
6379;DHT22;3222;48.858;10.128;2023-02-28T14:49:57;4.10;99.90
6379;DHT22;3222;48.858;10.128;2023-02-28T14:52:27;4.20;99.90
6379;DHT22;3222;48.858;10.128;2023-02-28T14:55:05;4.50;99.90
6379;DHT22;3222;48.858;10.128;2023-02-28T14:57:38;4.50;99.90
6379;DHT22;3222;48.858;10.128;2023-02-28T15:00:29;4.40;99.90
6379;DHT22;3222;48.858;10.128;2023-02-28T15:02:56;4.20;99.90
6379;DHT22;3222;48.858;10.128;2023-02-28T15:05:31;4.20;99.90
6379;DHT22;3222;48.858;10.128;2023-02-28T15:08:13;4.20;99.90
6379;DHT22;3222;48.858;10.128;2023-02-28T15:10:50;4.50;99.90
6379;DHT22;3222;48.858;10.128;2023-02-28T15:13:17;4.30;99.90
6379;DHT22;3222;48.858;10.128;2023-02-28T15:15:51;4.20;99.90
6379;DHT22;3222;48.858;10.128;2023-02-28T15:21:16;4.30;99.90
6379;DHT22;3222;48.858;10.128;2023-02-28T15:23:49;4.20;99.90
6379;DHT22;3222;48.858;10.128;2023-02-28T15:26:17;4.10;99.90
6379;DHT22;3222;48.858;10.128;2023-02-28T15:28:45;4.00;99.90
6379;DHT22;3222;48.858;10.128;2023-02-28T15:31:23;4.10;99.90
6379;DHT22;3222;48.858;10.128;2023-02-28T15:33:56;4.30;99.90
6379;DHT22;3222;48.858;10.128;2023-02-28T15:36:25;4.50;99.90
6379;DHT22;3222;48.858;10.128;2023-02-28T15:38:53;4.40;99.90
6379;DHT22;3222;48.858;10.128;2023-02-28T15:41:27;4.30;99.90
6379;DHT22;3222;48.858;10.128;2023-02-28T15:44:28;4.10;99.90
6379;DHT22;3222;48.858;10.128;2023-02-28T15:47:03;4.10;99.90
6379;DHT22;3222;48.858;10.128;2023-02-28T15:49:48;4.10;99.90
6379;DHT22;3222;48.858;10.128;2023-02-28T15:52:17;4.20;99.90
6379;DHT22;3222;48.858;10.128;2023-02-28T15:54:45;4.10;99.90
6379;DHT22;3222;48.858;10.128;2023-02-28T15:57:20;4.10;99.90
6379;DHT22;3222;48.858;10.128;2023-02-28T15:59:54;4.30;99.90
6379;DHT22;3222;48.858;10.128;2023-02-28T16:02:27;3.90;99.90
6379;DHT22;3222;48.858;10.128;2023-02-28T16:05:25;3.80;99.90
6379;DHT22;3222;48.858;10.128;2023-02-28T16:07:58;3.70;99.90
6379;DHT22;3222;48.858;10.128;2023-02-28T16:10:26;3.70;99.90
6379;DHT22;3222;48.858;10.128;2023-02-28T16:12:54;3.40;99.90
6379;DHT22;3222;48.858;10.128;2023-02-28T16:15:24;3.30;99.90
6379;DHT22;3222;48.858;10.128;2023-02-28T16:17:51;3.30;99.90
6379;DHT22;3222;48.858;10.128;2023-02-28T16:20:21;3.40;99.90
6379;DHT22;3222;48.858;10.128;2023-02-28T16:22:47;3.30;99.90
6379;DHT22;3222;48.858;10.128;2023-02-28T16:25:18;3.40;99.90
6379;DHT22;3222;48.858;10.128;2023-02-28T16:27:49;3.30;99.90
6379;DHT22;3222;48.858;10.128;2023-02-28T16:30:20;3.40;99.90
6379;DHT22;3222;48.858;10.128;2023-02-28T16:32:46;3.30;99.90
6379;DHT22;3222;48.858;10.128;2023-02-28T16:35:12;3.10;99.90
6379;DHT22;3222;48.858;10.128;2023-02-28T16:37:39;3.00;99.90
6379;DHT22;3222;48.858;10.128;2023-02-28T16:40:05;3.10;99.90
6379;DHT22;3222;48.858;10.128;2023-02-28T16:42:31;3.20;99.90
6379;DHT22;3222;48.858;10.128;2023-02-28T16:44:57;3.00;99.90
6379;DHT22;3222;48.858;10.128;2023-02-28T16:47:23;2.90;99.90
6379;DHT22;3222;48.858;10.128;2023-02-28T16:49:49;2.80;99.90
6379;DHT22;3222;48.858;10.128;2023-02-28T16:52:15;2.70;99.90
6379;DHT22;3222;48.858;10.128;2023-02-28T16:54:41;2.80;99.90
6379;DHT22;3222;48.858;10.128;2023-02-28T16:57:20;2.70;99.90
6379;DHT22;3222;48.858;10.128;2023-02-28T16:59:47;2.60;99.90
6379;DHT22;3222;48.858;10.128;2023-02-28T17:02:14;2.60;99.90
6379;DHT22;3222;48.858;10.128;2023-02-28T17:04:40;2.70;99.90
6379;DHT22;3222;48.858;10.128;2023-02-28T17:07:11;2.60;99.90
6379;DHT22;3222;48.858;10.128;2023-02-28T17:09:37;2.50;99.90
6379;DHT22;3222;48.858;10.128;2023-02-28T17:12:03;2.40;99.90
6379;DHT22;3222;48.858;10.128;2023-02-28T17:14:29;2.40;99.90
6379;DHT22;3222;48.858;10.128;2023-02-28T17:16:55;2.30;99.90
6379;DHT22;3222;48.858;10.128;2023-02-28T17:19:20;2.40;99.90
6379;DHT22;3222;48.858;10.128;2023-02-28T17:21:46;2.30;99.90
6379;DHT22;3222;48.858;10.128;2023-02-28T17:24:12;2.40;99.90
6379;DHT22;3222;48.858;10.128;2023-02-28T17:26:39;2.30;99.90
6379;DHT22;3222;48.858;10.128;2023-02-28T17:29:19;2.20;99.90
6379;DHT22;3222;48.858;10.128;2023-02-28T17:31:46;2.20;99.90
6379;DHT22;3222;48.858;10.128;2023-02-28T17:34:12;2.20;99.90
6379;DHT22;3222;48.858;10.128;2023-02-28T17:36:49;2.10;99.90
6379;DHT22;3222;48.858;10.128;2023-02-28T17:39:16;2.10;99.90
6379;DHT22;3222;48.858;10.128;2023-02-28T17:41:52;2.10;99.90
6379;DHT22;3222;48.858;10.128;2023-02-28T17:44:18;2.00;99.90
6379;DHT22;3222;48.858;10.128;2023-02-28T17:46:45;2.10;99.90
6379;DHT22;3222;48.858;10.128;2023-02-28T17:49:11;2.00;99.90
6379;DHT22;3222;48.858;10.128;2023-02-28T17:51:36;2.00;99.90
6379;DHT22;3222;48.858;10.128;2023-02-28T17:54:02;2.00;99.90
6379;DHT22;3222;48.858;10.128;2023-02-28T17:56:28;1.90;99.90
6379;DHT22;3222;48.858;10.128;2023-02-28T17:58:55;2.10;99.90
6379;DHT22;3222;48.858;10.128;2023-02-28T18:01:22;2.00;99.90
6379;DHT22;3222;48.858;10.128;2023-02-28T18:03:50;2.00;99.90
6379;DHT22;3222;48.858;10.128;2023-02-28T18:06:23;1.90;99.90
6379;DHT22;3222;48.858;10.128;2023-02-28T18:08:50;1.90;99.90
6379;DHT22;3222;48.858;10.128;2023-02-28T18:11:20;2.00;99.90
6379;DHT22;3222;48.858;10.128;2023-02-28T18:13:52;2.10;99.90
6379;DHT22;3222;48.858;10.128;2023-02-28T18:16:18;2.10;99.90
6379;DHT22;3222;48.858;10.128;2023-02-28T18:18:45;2.00;99.90
6379;DHT22;3222;48.858;10.128;2023-02-28T18:21:12;1.90;99.90
6379;DHT22;3222;48.858;10.128;2023-02-28T18:23:47;1.80;99.90